Latest Weather Observations for Mount Crawford

IDS60901

Issued at 11:41 am CDT Friday 18 October 2019 (issued every 10 minutes, with the page automatically refreshed every 10 minutes)

About weather observations | Map of Adelaide area stations | Latest observations for Adelaide area | Other Formats
Station Details ID: 023878 Name: MOUNT CRAWFORD AWS Lat: -34.73 Lon: 138.93 Height: 525.0 m
Data from the previous 72 hours. | See also: Recent months at Mount Crawford
Date/Time
CDT
Temp
°C
App
Temp
°C
Dew
Point
°C
Rel
Hum
%
Delta-T
°C
Wind Press
QNH
hPa
Press
MSL
hPa
Rain since
9am
mm
Dir  Spd
km/h
Gust
km/h
Spd
kts
Gust
kts
18/11:30am 12.7 6.4 7.4 70 2.6 WNW 30 48 16 26 1016.6 1016.0 0.0
18/11:00am 12.2 5.7 6.7 69 2.7 WNW 30 44 16 24 1016.7 1016.1 0.0
18/10:30am 11.0 4.9 6.6 74 2.1 WNW 28 37 15 20 1016.6 1016.0 0.0
18/10:00am 9.7 4.3 6.2 79 1.7 WNW 24 39 13 21 1016.7 1016.1 0.0
18/09:30am 8.8 3.2 5.2 78 1.7 WNW 24 37 13 20 1016.8 1016.2 0.0
18/09:00am 8.1 3.1 4.7 79 1.5 NW 20 26 11 14 1016.5 1015.9 0.0
18/08:30am 7.4 2.3 4.0 79 1.5 NW 20 28 11 15 1016.5 1015.9 0.0
18/08:00am 7.8 2.6 3.7 75 1.8 NW 20 30 11 16 1016.7 1016.1 0.0
18/07:30am 8.2 3.5 5.1 81 1.4 NNW 19 24 10 13 1016.2 1015.5 0.0
18/07:00am 7.3 2.4 5.0 85 1.0 NNW 20 26 11 14 1016.0 1015.3 0.0
18/06:30am 6.8 2.0 4.6 86 1.0 NNW 19 24 10 13 1015.9 1015.2 0.0
18/06:00am 7.1 2.3 4.8 85 1.0 NNW 19 22 10 12 1015.8 1015.1 0.0
18/05:30am 7.2 2.8 5.0 86 1.0 NW 17 24 9 13 1015.8 1015.1 0.0
18/05:00am 7.1 3.1 4.9 86 1.0 NW 15 19 8 10 1015.6 1014.9 0.0
18/04:30am 7.4 3.1 5.4 87 0.9 NW 17 22 9 12 1015.7 1015.0 0.0
18/04:00am 7.3 3.1 5.6 89 0.8 WNW 17 20 9 11 1015.8 1015.1 0.0
18/03:30am 7.1 2.5 5.6 90 0.7 WNW 19 22 10 12 1016.1 1015.4 0.0
18/03:00am 7.1 2.4 5.3 88 0.8 WNW 19 26 10 14 1016.4 1015.8 0.0
18/02:30am 6.6 1.9 5.1 90 0.7 W 19 22 10 12 1016.9 1016.3 0.0
18/02:00am 6.4 1.9 4.4 87 0.9 W 17 22 9 12 1017.4 1016.7 0.0
18/01:30am 6.3 2.2 4.1 86 1.0 W 15 20 8 11 1017.7 1017.0 0.0
18/01:00am 6.9 2.3 3.9 81 1.3 W 17 22 9 12 1017.8 1017.1 0.0
18/12:30am 8.0 2.4 3.5 73 2.0 WNW 22 26 12 14 1017.9 1017.2 0.0
18/12:00am 8.2 3.0 3.3 71 2.2 WNW 20 26 11 14 1017.9 1017.2 0.0
 
Date/Time
CDT
Temp
°C
App
Temp
°C
Dew
Point
°C
Rel
Hum
%
Delta-T
°C
Wind Press
QNH
hPa
Press
MSL
hPa
Rain since
9am
mm
Dir  Spd
km/h
Gust
km/h
Spd
kts
Gust
kts
17/11:30pm 8.3 3.2 3.2 70 2.2 WNW 19 24 10 13 1017.9 1017.2 0.0
17/11:00pm 8.7 4.0 3.1 68 2.5 NW 17 22 9 12 1017.9 1017.2 0.0
17/10:30pm 8.7 4.0 3.1 68 2.5 NW 17 22 9 12 1018.1 1017.5 0.0
17/10:00pm 8.7 4.4 3.3 69 2.4 NW 15 19 8 10 1018.2 1017.6 0.0
17/09:30pm 8.8 4.9 3.6 70 2.3 NNW 13 15 7 8 1018.1 1017.5 0.0
17/09:00pm 8.7 4.9 3.7 71 2.2 WNW 13 17 7 9 1018.0 1017.3 0.0
17/08:30pm 8.4 5.0 4.0 74 2.0 WNW 11 15 6 8 1018.1 1017.5 0.0
17/08:00pm 8.4 4.6 4.0 74 2.0 W 13 15 7 8 1018.0 1017.3 0.0
17/07:30pm 9.3 4.8 4.1 70 2.4 W 17 24 9 13 1018.1 1017.5 0.0
17/07:00pm 10.5 5.5 4.4 66 2.8 W 20 28 11 15 1018.0 1017.3 0.0
17/06:30pm 11.4 6.0 4.4 62 3.2 W 22 32 12 17 1018.0 1017.3 0.0
17/06:00pm 12.1 7.1 4.6 60 3.5 W 20 35 11 19 1017.9 1017.2 0.0
17/05:30pm 12.3 6.6 4.8 60 3.5 W 24 33 13 18 1017.9 1017.2 0.0
17/05:00pm 13.1 7.0 5.0 58 3.9 W 26 39 14 21 1017.7 1017.0 0.0
17/04:30pm 12.5 6.6 4.0 56 3.9 WSW 24 39 13 21 1017.6 1016.9 0.0
17/04:00pm 13.0 6.3 3.9 54 4.2 W 28 41 15 22 1017.5 1016.8 0.0
17/03:30pm 12.4 5.7 3.9 56 3.9 W 28 43 15 23 1017.4 1016.7 0.0
17/03:00pm 12.5 6.2 3.5 54 4.1 W 26 39 14 21 1017.6 1016.9 0.0
17/02:30pm 12.6 6.5 2.5 50 4.5 WSW 24 43 13 23 1017.9 1017.2 0.0
17/02:09pm 11.8 5.0 3.1 55 3.9 W 28 46 15 25 1018.1 1017.5 0.0
17/02:00pm 11.5 4.3 3.0 56 3.8 W 30 46 16 25 1017.9 1017.2 0.0
17/01:59pm 11.6 4.8 3.1 56 3.8 W 28 46 15 25 1017.9 1017.2 0.0
17/01:30pm 11.6 5.6 3.4 57 3.7 WSW 24 35 13 19 1018.3 1017.7 0.0
17/01:00pm 11.7 5.0 3.7 58 3.7 WSW 28 46 15 25 1018.3 1017.7 0.0
17/12:30pm 10.6 3.6 1.9 55 3.8 WSW 28 46 15 25 1018.3 1017.7 0.0
17/12:20pm 10.5 3.5 1.9 55 3.7 WSW 28 48 15 26 1018.2 1017.6 0.0
17/12:00pm 10.6 3.3 2.2 56 3.7 WSW 30 43 16 23 1018.1 1017.5 0.0
17/11:30am 10.8 4.5 3.8 62 3.2 WSW 26 46 14 25 1018.3 1017.7 0.0
17/11:21am 10.2 3.4 3.0 61 3.2 WSW 28 46 15 25 1018.2 1017.6 0.0
17/11:00am 10.6 4.1 4.5 66 2.8 WSW 28 43 15 23 1018.2 1017.6 0.0
17/10:37am 9.0 1.3 2.1 62 3.0 WSW 32 50 17 27 1018.1 1017.5 0.0
17/10:30am 10.1 2.5 2.9 61 3.2 WSW 32 48 17 26 1018.0 1017.3 0.0
17/10:00am 8.4 0.1 2.0 64 2.7 W 35 56 19 30 1017.7 1017.0 0.0
17/09:30am 8.4 0.2 2.8 68 2.4 WSW 35 54 19 29 1017.5 1016.8 0.0
17/09:07am 8.5 2.0 4.5 76 1.8 WSW 28 46 15 25 1017.2 1016.5 0.0
17/09:00am 7.8 1.2 4.0 77 1.7 W 28 44 15 24 1016.9 1016.3 6.4
17/08:30am 7.5 0.8 3.6 76 1.7 WSW 28 46 15 25 1016.4 1015.8 6.4
17/08:00am 7.0 0.4 4.0 81 1.3 WSW 28 50 15 27 1016.0 1015.3 6.4
17/07:57am 6.9 -0.2 3.7 80 1.4 WSW 30 50 16 27 1015.7 1015.0 6.4
17/07:30am 6.1 0.6 4.1 87 0.9 W 22 33 12 18 1015.7 1015.0 6.4
17/07:00am 5.5 -0.1 3.7 88 0.8 WSW 22 35 12 19 1015.3 1014.6 6.4
17/06:30am 5.5 -0.4 3.8 89 0.7 WSW 24 39 13 21 1014.8 1014.2 6.4
17/06:00am 5.5 -0.7 4.2 91 0.6 WSW 26 37 14 20 1014.5 1013.8 6.4
17/05:30am 5.5 0.0 4.2 91 0.6 WSW 22 33 12 18 1014.4 1013.7 6.2
17/05:00am 5.5 0.4 4.3 92 0.5 WSW 20 30 11 16 1014.5 1013.8 6.2
17/04:30am 5.7 0.8 5.0 95 0.3 WSW 20 35 11 19 1014.4 1013.7 6.2
17/04:00am 5.6 1.4 5.5 99 0.0 W 17 32 9 17 1014.4 1013.7 6.2
17/03:30am 5.5 1.2 5.2 98 0.1 W 17 28 9 15 1014.4 1013.7 6.2
17/03:00am 5.5 -0.6 4.9 96 0.3 W 26 37 14 20 1014.4 1013.7 6.2
17/02:41am 5.4 -1.1 4.5 94 0.4 W 28 46 15 25 1014.2 1013.5 5.8
17/02:30am 6.1 1.3 4.9 92 0.5 W 19 37 10 20 1014.4 1013.7 4.2
17/02:00am 6.3 -0.6 4.8 90 0.7 W 30 43 16 23 1014.4 1013.7 4.0
17/01:36am 6.1 -0.7 5.2 94 0.4 W 30 48 16 26 1014.3 1013.6 4.0
17/01:30am 5.9 -1.3 5.0 94 0.4 W 32 46 17 25 1014.5 1013.8 4.0
17/01:00am 5.9 -1.5 4.9 93 0.4 W 33 56 18 30 1014.7 1014.0 4.0
17/12:30am 7.0 -0.4 4.1 82 1.3 W 32 54 17 29 1014.4 1013.7 2.8
17/12:16am 7.0 -0.5 4.3 83 1.2 W 33 52 18 28 1014.4 1013.7 2.8
17/12:00am 6.9 -0.5 4.9 87 0.9 W 33 46 18 25 1014.4 1013.7 2.8
 
Date/Time
CDT
Temp
°C
App
Temp
°C
Dew
Point
°C
Rel
Hum
%
Delta-T
°C
Wind Press
QNH
hPa
Press
MSL
hPa
Rain since
9am
mm
Dir  Spd
km/h
Gust
km/h
Spd
kts
Gust
kts
16/11:30pm 6.6 -0.2 4.9 89 0.8 WSW 30 48 16 26 1014.5 1013.8 2.6
16/11:01pm 7.7 0.3 5.2 84 1.1 W 33 54 18 29 1014.1 1013.4 2.4
16/11:00pm 7.6 0.2 5.2 85 1.1 W 33 46 18 25 1014.1 1013.4 2.4
16/10:30pm 7.5 0.3 5.1 85 1.1 W 32 46 17 25 1014.2 1013.5 2.4
16/10:05pm 7.8 -0.4 4.7 81 1.4 W 37 56 20 30 1013.8 1013.1 2.4
16/10:00pm 7.7 0.0 5.2 84 1.1 W 35 50 19 27 1013.8 1013.1 2.4
16/09:42pm 8.1 1.5 7.8 98 0.1 W 32 50 17 27 1013.8 1013.1 2.4
16/09:30pm 8.0 1.5 8.0 100 0.0 W 32 48 17 26 1013.9 1013.2 2.4
16/09:00pm 7.6 2.1 7.6 100 0.0 W 26 35 14 19 1014.2 1013.5 2.4
16/08:30pm 7.5 0.2 7.4 99 0.0 WSW 35 56 19 30 1013.8 1013.1 1.8
16/08:14pm 8.4 2.3 8.3 99 0.0 W 30 56 16 30 1013.2 1012.5 1.6
16/08:00pm 8.3 1.8 8.0 98 0.1 W 32 43 17 23 1013.1 1012.3 0.8
16/07:30pm 9.0 2.0 8.4 96 0.3 W 35 57 19 31 1012.8 1012.1 0.6
16/07:21pm 9.2 1.2 7.5 89 0.8 W 39 57 21 31 1012.5 1011.8 0.4
16/07:00pm 10.6 3.8 5.2 69 2.5 W 30 46 16 25 1012.5 1011.8 0.4
16/06:34pm 10.8 3.9 6.4 74 2.1 W 32 50 17 27 1012.6 1011.9 0.4
16/06:30pm 10.7 3.2 6.3 74 2.1 W 35 50 19 27 1012.6 1011.9 0.4
16/06:00pm 11.1 4.1 6.0 71 2.5 W 32 52 17 28 1012.5 1011.8 0.4
16/05:58pm 11.2 4.0 6.1 71 2.5 W 33 52 18 28 1012.5 1011.8 0.4
16/05:30pm 11.4 4.2 5.9 69 2.6 W 33 48 18 26 1012.2 1011.5 0.4
16/05:10pm 12.9 6.8 6.7 66 3.1 W 28 48 15 26 1012.1 1011.4 0.4
16/05:00pm 11.8 6.1 6.5 70 2.6 WSW 26 44 14 24 1012.2 1011.5 0.4
16/04:33pm 12.7 5.5 5.1 60 3.6 W 32 50 17 27 1011.9 1011.2 0.4
16/04:30pm 12.6 5.2 5.1 60 3.6 W 33 50 18 27 1011.9 1011.2 0.4
16/04:00pm 13.4 5.8 5.6 59 3.8 W 35 56 19 30 1011.6 1010.9 0.4
16/03:33pm 13.0 5.6 5.2 59 3.7 W 33 54 18 29 1011.6 1010.9 0.4
16/03:30pm 13.2 6.0 5.9 61 3.6 W 33 48 18 26 1011.8 1011.1 0.4
16/03:01pm 13.7 7.0 5.8 59 3.9 W 30 48 16 26 1011.9 1011.2 0.4
16/03:00pm 14.1 7.6 6.7 61 3.7 W 30 44 16 24 1012.0 1011.3 0.4
16/02:45pm 13.5 7.0 4.9 56 4.1 W 28 46 15 25 1011.9 1011.2 0.4
16/02:30pm 13.2 6.9 5.6 60 3.7 WSW 28 44 15 24 1012.0 1011.3 0.4
16/02:00pm 13.2 7.4 6.1 62 3.5 WSW 26 43 14 23 1012.2 1011.5 0.4
16/01:30pm 11.9 5.6 3.9 58 3.7 WSW 26 39 14 21 1012.4 1011.7 0.4
16/01:00pm 11.7 7.3 7.6 76 2.0 WSW 20 35 11 19 1012.6 1011.9 0.4
16/12:30pm 11.1 8.6 11.1 100 0.0 WSW 15 20 8 11 1012.8 1012.1 0.4
16/12:00pm 10.6 8.3 10.6 100 0.0 W 13 20 7 11 1012.8 1012.1 0.4
16/11:30am 10.3 7.6 10.3 100 0.0 WSW 15 22 8 12 1013.1 1012.3 0.4
16/11:00am 10.2 7.5 10.2 100 0.0 W 15 20 8 11 1013.2 1012.5 0.2
16/10:30am 10.0 6.8 10.0 100 0.0 W 17 24 9 13 1013.1 1012.3 0.2
16/10:00am 10.0 6.8 10.0 100 0.0 W 17 24 9 13 1013.3 1012.6 0.0
16/09:30am 9.8 6.2 9.8 100 0.0 W 19 28 10 15 1013.3 1012.6 0.0
16/09:00am 9.9 6.7 9.9 100 0.0 W 17 26 9 14 1013.2 1012.5 1.4
16/08:30am 9.9 7.1 9.9 100 0.0 W 15 22 8 12 1013.2 1012.5 1.4
16/08:00am 9.7 7.2 9.7 100 0.0 W 13 19 7 10 1012.8 1012.1 1.2
16/07:30am 9.7 7.2 9.7 100 0.0 W 13 19 7 10 1012.7 1012.0 1.2
16/07:00am 9.7 6.4 9.6 99 0.1 WSW 17 28 9 15 1012.3 1011.6 0.8
16/06:30am 9.7 6.4 9.4 98 0.2 WSW 17 26 9 14 1011.9 1011.2 0.6
16/06:00am 9.8 7.2 9.2 96 0.3 WSW 13 19 7 10 1011.8 1011.1 0.6
16/05:30am 10.1 6.6 8.9 92 0.6 WSW 17 24 9 13 1011.9 1011.2 0.4
16/05:00am 10.5 7.7 8.6 88 1.0 WSW 13 19 7 10 1011.4 1010.6 0.4
16/04:30am 10.8 8.6 7.7 81 1.5 SW 9 15 5 8 1011.6 1010.9 0.4
16/04:00am 10.9 8.0 6.5 74 2.1 SW 11 15 6 8 1012.1 1011.4 0.4
16/03:30am 10.7 7.6 5.7 71 2.4 SE 11 13 6 7 1011.5 1010.7 0.4
16/03:00am 10.3 7.3 6.1 75 2.0 E 11 19 6 10 1011.4 1010.6 0.4
16/02:30am 10.2 6.5 6.5 78 1.8 ESE 15 19 8 10 1011.2 1010.4 0.4
16/02:00am 10.7 7.8 6.6 76 2.0 ESE 11 13 6 7 1012.2 1011.5 0.4
16/01:30am 11.1 7.4 6.5 73 2.2 SE 15 20 8 11 1012.5 1011.8 0.4
16/01:00am 11.6 8.3 6.3 70 2.6 SSE 13 19 7 10 1013.1 1012.3 0.4
16/12:30am 11.7 7.7 6.6 71 2.5 S 17 22 9 12 1013.8 1013.1 0.4
16/12:00am 11.8 7.3 6.9 72 2.4 SSW 20 32 11 17 1013.9 1013.2 0.4
 
Date/Time
CDT
Temp
°C
App
Temp
°C
Dew
Point
°C
Rel
Hum
%
Delta-T
°C
Wind Press
QNH
hPa
Press
MSL
hPa
Rain since
9am
mm
Dir  Spd
km/h
Gust
km/h
Spd
kts
Gust
kts
15/11:30pm 11.6 7.6 8.3 80 1.7 S 19 22 10 12 1013.5 1012.8 0.4
15/11:00pm 11.7 8.7 9.1 84 1.3 SSE 15 19 8 10 1013.7 1013.0 0.4
15/10:30pm 11.9 9.2 9.1 83 1.4 S 13 17 7 9 1014.1 1013.4 0.4
15/10:00pm 12.7 10.7 8.6 76 2.1 SW 9 11 5 6 1015.3 1014.6 0.4
15/09:30pm 12.7 11.1 8.6 76 2.1 S 7 11 4 6 1014.7 1014.0 0.4
15/09:00pm 12.7 10.3 8.6 76 2.1 WSW 11 13 6 7 1015.3 1014.6 0.4
15/08:30pm 12.4 11.7 8.7 78 1.9 NE 2 7 1 4 1014.6 1013.9 0.4
15/08:00pm 12.8 11.4 8.9 77 2.0 NNE 6 9 3 5 1015.3 1014.6 0.0
15/07:30pm 12.9 10.4 8.4 74 2.3 SE 11 15 6 8 1014.2 1013.5 0.0
15/07:00pm 13.7 10.0 7.9 68 3.0 SSE 17 24 9 13 1012.9 1012.2 0.0
15/06:30pm 14.5 10.9 8.2 66 3.2 SSE 17 22 9 12 1013.4 1012.7 0.0
15/06:00pm 14.9 11.6 8.2 64 3.5 SSW 15 19 8 10 1013.6 1012.9 0.0
15/05:30pm 15.3 12.9 6.8 57 4.3 SSE 9 13 5 7 1013.4 1012.7 0.0
15/05:00pm 15.4 13.6 7.2 58 4.2 ESE 6 7 3 4 1013.7 1013.0 0.0
15/04:30pm 15.6 13.8 5.2 50 5.1 SE 4 7 2 4 1013.5 1012.8 0.0
15/04:00pm 14.9 11.5 6.0 55 4.4 SSW 13 17 7 9 1013.8 1013.1 0.0
15/03:30pm 15.1 12.2 6.7 57 4.2 WSW 11 15 6 8 1014.0 1013.3 0.0
15/03:00pm 15.1 12.2 6.7 57 4.2 WSW 11 17 6 9 1014.6 1013.9 0.0
15/02:30pm 16.0 13.1 4.7 47 5.5 SW 9 15 5 8 1014.2 1013.5 0.0
15/02:00pm 16.0 13.4 5.9 51 5.0 WSW 9 17 5 9 1014.3 1013.6 0.0
15/01:30pm 16.9 14.3 4.3 43 6.1 SSW 7 11 4 6 1014.1 1013.4 0.0
15/01:00pm 16.6 13.3 4.3 44 5.9 SW 11 17 6 9 1014.2 1013.5 0.0
15/12:30pm 16.3 13.4 4.7 46 5.6 WSW 9 17 5 9 1014.6 1013.9 0.0
15/12:00pm 16.0 12.5 5.6 50 5.1 NNW 13 20 7 11 1015.4 1014.7 0.0

Latest Capital City Observations: Canberra | Sydney | Melbourne | Brisbane | Adelaide | Perth | Hobart | Darwin

Other formats

Comma delimited format used in spreadsheet applications
http://www.bom.gov.au/fwo/IDS60901/IDS60901.94678.axf

JavaScript Object Notation format (JSON) in row-major order
http://www.bom.gov.au/fwo/IDS60901/IDS60901.94678.json

Data quality

Most of these data are generated automatically and are frequently updated. Quality checks on data are not normally performed. It is possible for incorrect values to appear. Refer to information at About Latest Weather Observations and please check the disclaimer before using these data.